createdAt,value
2023-03-21T00:00:03.249Z,979.76
2023-03-21T00:01:03.283Z,979.71
2023-03-21T00:02:03.435Z,979.68
2023-03-21T00:03:03.360Z,979.65
2023-03-21T00:04:03.439Z,979.65
2023-03-21T00:05:16.232Z,979.60
2023-03-21T00:06:03.139Z,979.68
2023-03-21T00:07:03.215Z,979.71
2023-03-21T00:08:03.224Z,979.68
2023-03-21T00:09:03.374Z,979.68
2023-03-21T00:10:19.795Z,979.60
2023-03-21T00:11:03.386Z,979.68
2023-03-21T00:12:03.240Z,979.57
2023-03-21T00:13:03.364Z,979.62
2023-03-21T00:14:03.602Z,979.60
2023-03-21T00:15:03.523Z,979.65
2023-03-21T00:16:17.879Z,979.68
2023-03-21T00:17:03.486Z,979.54
2023-03-21T00:18:03.292Z,979.71
2023-03-21T00:19:03.299Z,979.62
2023-03-21T00:20:03.188Z,979.45
2023-03-21T00:21:46.442Z,979.68
2023-03-21T00:22:09.178Z,979.57
2023-03-21T00:23:03.885Z,979.57
2023-03-21T00:24:03.945Z,979.65
2023-03-21T00:25:03.799Z,979.57
2023-03-21T00:26:03.906Z,979.62
2023-03-21T00:27:50.289Z,979.48
2023-03-21T00:28:08.948Z,979.40
2023-03-21T00:29:03.832Z,979.62
2023-03-21T00:30:03.804Z,979.57
2023-03-21T00:31:03.845Z,979.62
2023-03-21T00:32:03.744Z,979.62
2023-03-21T00:33:22.497Z,979.45
2023-03-21T00:34:03.808Z,979.48
2023-03-21T00:36:02.109Z,979.59
2023-03-21T00:36:06.289Z,979.51
2023-03-21T00:37:03.008Z,979.51
2023-03-21T00:38:03.070Z,979.45
2023-03-21T00:39:03.155Z,979.51
2023-03-21T00:40:04.249Z,979.48
2023-03-21T00:41:23.628Z,979.42
2023-03-21T00:42:03.603Z,979.54
2023-03-21T00:43:03.567Z,979.40
2023-03-21T00:44:03.535Z,979.54
2023-03-21T00:45:03.658Z,979.34
2023-03-21T00:46:03.632Z,979.48
2023-03-21T00:47:08.263Z,979.42
2023-03-21T00:48:03.847Z,979.37
2023-03-21T00:49:03.676Z,979.42
2023-03-21T00:50:03.816Z,979.34
2023-03-21T00:51:03.804Z,979.42
2023-03-21T00:52:22.311Z,979.34
2023-03-21T00:54:03.125Z,979.48
2023-03-21T00:55:03.104Z,979.34
2023-03-21T00:56:03.150Z,979.28
2023-03-21T00:57:03.177Z,979.42
2023-03-21T00:58:03.248Z,979.23
2023-03-21T00:59:03.313Z,979.34
2023-03-21T01:00:03.271Z,979.34
2023-03-21T01:01:03.357Z,979.28
2023-03-21T01:02:03.715Z,979.34
2023-03-21T01:03:24.217Z,979.31
2023-03-21T01:04:03.368Z,979.37
2023-03-21T01:05:03.468Z,979.37
2023-03-21T01:06:03.345Z,979.23
2023-03-21T01:07:03.375Z,979.28
2023-03-21T01:08:20.759Z,979.28
2023-03-21T01:09:03.255Z,979.28
2023-03-21T01:10:03.462Z,979.34
2023-03-21T01:11:03.561Z,979.34
2023-03-21T01:12:03.675Z,979.34
2023-03-21T01:13:03.706Z,979.28
2023-03-21T01:14:23.466Z,979.31
2023-03-21T01:15:03.755Z,979.28
2023-03-21T01:16:03.908Z,979.28
2023-03-21T01:17:03.842Z,979.14
2023-03-21T01:18:03.822Z,979.28
2023-03-21T01:19:14.810Z,979.25
2023-03-21T01:20:03.787Z,979.17
2023-03-21T01:21:03.770Z,979.14
2023-03-21T01:22:03.893Z,979.23
2023-03-21T01:23:03.864Z,979.08
2023-03-21T01:24:03.926Z,979.14
2023-03-21T01:25:22.830Z,979.25
2023-03-21T01:26:02.940Z,979.20
2023-03-21T01:27:03.024Z,979.17
2023-03-21T01:28:02.996Z,979.14
2023-03-21T01:29:02.934Z,979.11
2023-03-21T01:30:14.244Z,979.00
2023-03-21T01:31:03.105Z,979.14
2023-03-21T01:32:03.021Z,979.11
2023-03-21T01:33:03.054Z,979.05
2023-03-21T01:34:03.130Z,979.14
2023-03-21T01:35:03.310Z,979.11
2023-03-21T01:36:13.779Z,979.03
2023-03-21T01:37:03.537Z,979.03
2023-03-21T01:38:03.298Z,979.11
2023-03-21T01:39:03.258Z,979.17
2023-03-21T01:40:03.316Z,979.14
2023-03-21T01:41:19.177Z,979.03
2023-03-21T01:42:03.382Z,979.17
2023-03-21T01:43:03.327Z,979.05
2023-03-21T01:44:03.345Z,979.03
2023-03-21T01:45:03.419Z,978.97
2023-03-21T01:46:03.409Z,979.03
2023-03-21T01:47:12.675Z,978.94
2023-03-21T01:48:03.337Z,979.06
2023-03-21T01:49:03.366Z,978.92
2023-03-21T01:50:03.399Z,979.03
2023-03-21T01:51:03.226Z,979.09
2023-03-21T01:52:19.119Z,978.97
2023-03-21T01:53:03.269Z,978.92
2023-03-21T01:54:03.211Z,978.97
2023-03-21T01:55:03.243Z,978.97
2023-03-21T01:56:03.217Z,978.97
2023-03-21T01:57:03.618Z,978.97
2023-03-21T01:58:07.580Z,978.89
2023-03-21T01:59:03.732Z,979.03
2023-03-21T02:00:03.648Z,978.92
2023-03-21T02:01:03.814Z,978.92
2023-03-21T02:02:03.710Z,978.83
2023-03-21T02:03:23.657Z,978.86
2023-03-21T02:04:03.883Z,978.95
2023-03-21T02:05:03.745Z,978.78
2023-03-21T02:06:03.724Z,978.86
2023-03-21T02:07:03.874Z,978.94
2023-03-21T02:08:03.774Z,978.80
2023-03-21T02:09:03.941Z,978.75
2023-03-21T02:10:03.868Z,978.72
2023-03-21T02:11:03.803Z,978.83
2023-03-21T02:12:03.933Z,978.75
2023-03-21T02:13:03.851Z,978.80
2023-03-21T02:14:08.026Z,978.75
2023-03-21T02:15:03.850Z,978.86
2023-03-21T02:16:03.893Z,978.80
2023-03-21T02:17:03.893Z,978.80
2023-03-21T02:18:03.002Z,978.86
2023-03-21T02:19:02.985Z,978.72
2023-03-21T02:20:03.301Z,978.86
2023-03-21T02:21:03.393Z,978.86
2023-03-21T02:22:03.108Z,978.69
2023-03-21T02:23:03.225Z,978.75
2023-03-21T02:24:03.233Z,978.69
2023-03-21T02:25:21.141Z,978.75
2023-03-21T02:26:03.327Z,978.63
2023-03-21T02:27:05.085Z,978.63
2023-03-21T02:28:03.377Z,978.72
2023-03-21T02:29:03.516Z,978.63
2023-03-21T02:30:03.519Z,978.74
2023-03-21T02:31:03.529Z,978.57
2023-03-21T02:32:28.279Z,978.83
2023-03-21T02:33:03.590Z,978.66
2023-03-21T02:34:03.612Z,978.72
2023-03-21T02:35:03.485Z,978.63
2023-03-21T02:36:14.853Z,978.57
2023-03-21T02:37:03.594Z,978.57
2023-03-21T02:38:03.651Z,978.80
2023-03-21T02:39:03.648Z,978.63
2023-03-21T02:40:03.618Z,978.63
2023-03-21T02:41:13.118Z,978.63
2023-03-21T02:42:03.703Z,978.60
2023-03-21T02:43:09.268Z,978.66
2023-03-21T02:44:03.651Z,978.69
2023-03-21T02:45:03.728Z,978.60
2023-03-21T02:46:03.764Z,978.63
2023-03-21T02:47:07.044Z,978.55
2023-03-21T02:48:04.600Z,978.57
2023-03-21T02:49:03.968Z,978.55
2023-03-21T02:50:03.837Z,978.63
2023-03-21T02:51:03.790Z,978.63
2023-03-21T02:52:32.050Z,978.52
2023-03-21T02:53:03.760Z,978.57
2023-03-21T02:54:41.990Z,978.60
2023-03-21T02:55:03.042Z,978.69
2023-03-21T02:56:02.927Z,978.63
2023-03-21T02:57:03.121Z,978.69
2023-03-21T02:58:13.707Z,978.63
2023-03-21T02:59:03.176Z,978.75
2023-03-21T03:00:17.453Z,978.63
2023-03-21T03:01:03.184Z,978.78
2023-03-21T03:02:03.358Z,978.69
2023-03-21T03:03:16.026Z,978.61
2023-03-21T03:04:03.407Z,978.69
2023-03-21T03:05:20.567Z,978.55
2023-03-21T03:06:03.464Z,978.61
2023-03-21T03:07:03.500Z,978.55
2023-03-21T03:08:03.396Z,978.52
2023-03-21T03:09:03.641Z,978.75
2023-03-21T03:10:02.957Z,978.58
2023-03-21T03:11:02.953Z,978.66
2023-03-21T03:12:02.919Z,978.58
2023-03-21T03:13:03.029Z,978.55
2023-03-21T03:14:44.091Z,978.61
2023-03-21T03:15:04.660Z,978.66
2023-03-21T03:16:03.415Z,978.46
2023-03-21T03:17:03.322Z,978.66
2023-03-21T03:18:03.296Z,978.55
2023-03-21T03:19:03.296Z,978.55
2023-03-21T03:20:16.752Z,978.61
2023-03-21T03:21:03.363Z,978.63
2023-03-21T03:22:03.270Z,978.52
2023-03-21T03:23:03.245Z,978.44
2023-03-21T03:24:03.228Z,978.55
2023-03-21T03:25:24.899Z,978.55
2023-03-21T03:26:03.243Z,978.63
2023-03-21T03:27:03.198Z,978.61
2023-03-21T03:28:03.355Z,978.42
2023-03-21T03:29:03.370Z,978.61
2023-03-21T03:30:03.454Z,978.42
2023-03-21T03:31:10.763Z,978.55
2023-03-21T03:32:03.534Z,978.61
2023-03-21T03:33:03.535Z,978.55
2023-03-21T03:34:03.484Z,978.58
2023-03-21T03:35:03.919Z,978.39
2023-03-21T03:36:08.019Z,978.46
2023-03-21T03:37:03.872Z,978.55
2023-03-21T03:38:03.962Z,978.46
2023-03-21T03:39:03.866Z,978.55
2023-03-21T03:40:03.902Z,978.46
2023-03-21T03:41:03.909Z,978.58
2023-03-21T03:42:27.870Z,978.49
2023-03-21T03:43:03.856Z,978.52
2023-03-21T03:44:03.867Z,978.52
2023-03-21T03:45:02.963Z,978.42
2023-03-21T03:46:02.989Z,978.46
2023-03-21T03:47:03.899Z,978.42
2023-03-21T03:48:03.173Z,978.52
2023-03-21T03:49:02.970Z,978.52
2023-03-21T03:50:03.965Z,978.52
2023-03-21T03:51:03.906Z,978.52
2023-03-21T03:52:03.935Z,978.55
2023-03-21T03:53:18.006Z,978.49
2023-03-21T03:54:02.990Z,978.58
2023-03-21T03:55:03.054Z,978.39
2023-03-21T03:56:03.083Z,978.49
2023-03-21T03:57:03.035Z,978.55
2023-03-21T03:58:10.607Z,978.46
2023-03-21T03:59:03.140Z,978.42
2023-03-21T04:00:03.083Z,978.69
2023-03-21T04:01:03.140Z,978.44
2023-03-21T04:02:03.320Z,978.52
2023-03-21T04:03:03.580Z,978.55
2023-03-21T04:04:13.720Z,978.42
2023-03-21T04:05:03.259Z,978.58
2023-03-21T04:06:03.334Z,978.52
2023-03-21T04:07:03.333Z,978.52
2023-03-21T04:08:03.322Z,978.46
2023-03-21T04:09:20.362Z,978.52
2023-03-21T04:10:03.481Z,978.58
2023-03-21T04:11:03.388Z,978.61
2023-03-21T04:12:03.419Z,978.46
2023-03-21T04:13:03.329Z,978.44
2023-03-21T04:14:03.298Z,978.46
2023-03-21T04:15:11.340Z,978.49
2023-03-21T04:16:03.491Z,978.52
2023-03-21T04:17:03.359Z,978.49
2023-03-21T04:18:03.399Z,978.36
2023-03-21T04:19:03.685Z,978.33
2023-03-21T04:20:18.640Z,978.42
2023-03-21T04:21:03.766Z,978.39
2023-03-21T04:22:03.682Z,978.55
2023-03-21T04:23:03.738Z,978.55
2023-03-21T04:24:03.737Z,978.42
2023-03-21T04:25:03.921Z,978.52
2023-03-21T04:26:03.863Z,978.58
2023-03-21T04:27:02.893Z,978.34
2023-03-21T04:28:03.083Z,978.44
2023-03-21T04:29:03.157Z,978.53
2023-03-21T04:30:03.102Z,978.50
2023-03-21T04:31:22.548Z,978.53
2023-03-21T04:32:03.240Z,978.56
2023-03-21T04:33:03.140Z,978.50
2023-03-21T04:34:03.285Z,978.42
2023-03-21T04:35:03.338Z,978.50
2023-03-21T04:36:03.369Z,978.50
2023-03-21T04:37:03.366Z,978.61
2023-03-21T04:38:03.357Z,978.56
2023-03-21T04:39:03.395Z,978.50
2023-03-21T04:40:03.605Z,978.50
2023-03-21T04:41:03.532Z,978.56
2023-03-21T04:42:03.584Z,978.53
2023-03-21T04:43:03.474Z,978.62
2023-03-21T04:44:03.479Z,978.59
2023-03-21T04:45:03.600Z,978.53
2023-03-21T04:46:03.606Z,978.59
2023-03-21T04:47:03.643Z,978.62
2023-03-21T04:48:03.893Z,978.62
2023-03-21T04:49:03.699Z,978.56
2023-03-21T04:50:03.749Z,978.62
2023-03-21T04:51:03.736Z,978.48
2023-03-21T04:52:03.803Z,978.65
2023-03-21T04:53:03.868Z,978.43
2023-03-21T04:54:03.826Z,978.54
2023-03-21T04:55:03.791Z,978.54
2023-03-21T04:56:03.882Z,978.48
2023-03-21T04:57:03.807Z,978.54
2023-03-21T04:58:03.896Z,978.46
2023-03-21T04:59:03.823Z,978.46
2023-03-21T05:00:04.134Z,978.48
2023-03-21T05:01:04.079Z,978.51
2023-03-21T05:02:03.899Z,978.44
2023-03-21T05:03:02.974Z,978.51
2023-03-21T05:04:03.169Z,978.35
2023-03-21T05:05:02.972Z,978.35
2023-03-21T05:06:02.929Z,978.41
2023-03-21T05:07:03.067Z,978.41
2023-03-21T05:08:03.041Z,978.30
2023-03-21T05:09:02.974Z,978.32
2023-03-21T05:10:03.213Z,978.32
2023-03-21T05:11:02.999Z,978.54
2023-03-21T05:12:02.958Z,978.44
2023-03-21T05:13:02.972Z,978.54
2023-03-21T05:14:03.056Z,978.35
2023-03-21T05:15:03.212Z,978.51
2023-03-21T05:16:03.126Z,978.46
2023-03-21T05:17:03.341Z,978.48
2023-03-21T05:18:03.263Z,978.46
2023-03-21T05:19:03.314Z,978.27
2023-03-21T05:20:03.267Z,978.24
2023-03-21T05:21:03.362Z,978.35
2023-03-21T05:22:03.389Z,978.32
2023-03-21T05:23:03.434Z,978.44
2023-03-21T05:24:03.410Z,978.44
2023-03-21T05:25:03.812Z,978.54
2023-03-21T05:26:03.808Z,978.44
2023-03-21T05:27:02.979Z,978.38
2023-03-21T05:28:03.059Z,978.44
2023-03-21T05:29:03.001Z,978.48
2023-03-21T05:30:03.046Z,978.35
2023-03-21T05:31:03.183Z,978.45
2023-03-21T05:32:03.111Z,978.51
2023-03-21T05:33:03.020Z,978.43
2023-03-21T05:34:03.070Z,978.48
2023-03-21T05:35:03.034Z,978.43
2023-03-21T05:36:03.116Z,978.43
2023-03-21T05:37:03.116Z,978.40
2023-03-21T05:38:03.372Z,978.32
2023-03-21T05:39:03.167Z,978.51
2023-03-21T05:40:03.161Z,978.53
2023-03-21T05:41:03.126Z,978.43
2023-03-21T05:42:03.101Z,978.43
2023-03-21T05:43:03.126Z,978.43
2023-03-21T05:44:03.053Z,978.48
2023-03-21T05:45:03.093Z,978.40
2023-03-21T05:46:03.245Z,978.35
2023-03-21T05:47:03.084Z,978.35
2023-03-21T05:48:03.359Z,978.45
2023-03-21T05:49:03.187Z,978.45
2023-03-21T05:50:03.105Z,978.40
2023-03-21T05:51:03.191Z,978.32
2023-03-21T05:52:03.205Z,978.26
2023-03-21T05:53:03.225Z,978.40
2023-03-21T05:54:03.821Z,978.37
2023-03-21T05:55:03.975Z,978.44
2023-03-21T05:56:03.859Z,978.28
2023-03-21T05:57:03.821Z,978.28
2023-03-21T05:58:04.903Z,978.37
2023-03-21T05:59:03.945Z,978.37
2023-03-21T06:00:03.869Z,978.31
2023-03-21T06:01:03.036Z,978.37
2023-03-21T06:02:02.998Z,978.42
2023-03-21T06:03:03.127Z,978.39
2023-03-21T06:04:03.099Z,978.39
2023-03-21T06:05:03.071Z,978.42
2023-03-21T06:06:03.003Z,978.31
2023-03-21T06:07:03.003Z,978.28
2023-03-21T06:08:03.072Z,978.25
2023-03-21T06:09:03.057Z,978.39
2023-03-21T06:10:03.136Z,978.31
2023-03-21T06:11:03.120Z,978.31
2023-03-21T06:12:03.077Z,978.44
2023-03-21T06:13:03.043Z,978.39
2023-03-21T06:14:03.016Z,978.28
2023-03-21T06:15:03.228Z,978.30
2023-03-21T06:16:03.154Z,978.36
2023-03-21T06:17:03.028Z,978.44
2023-03-21T06:18:03.135Z,978.36
2023-03-21T06:19:03.062Z,978.36
2023-03-21T06:20:03.132Z,978.42
2023-03-21T06:21:03.332Z,978.44
2023-03-21T06:22:03.246Z,978.44
2023-03-21T06:23:03.277Z,978.41
2023-03-21T06:24:03.692Z,978.55
2023-03-21T06:25:03.618Z,978.52
2023-03-21T06:26:03.089Z,978.46
2023-03-21T06:27:04.491Z,978.33
2023-03-21T06:28:03.100Z,978.46
2023-03-21T06:29:03.130Z,978.38
2023-03-21T06:30:03.114Z,978.38
2023-03-21T06:31:03.148Z,978.32
2023-03-21T06:32:03.139Z,978.32
2023-03-21T06:33:03.014Z,978.30
2023-03-21T06:34:03.036Z,978.35
2023-03-21T06:35:03.080Z,978.38
2023-03-21T06:36:03.221Z,978.45
2023-03-21T06:37:03.085Z,978.38
2023-03-21T06:38:03.126Z,978.48
2023-03-21T06:39:03.061Z,978.48
2023-03-21T06:40:03.002Z,978.34
2023-03-21T06:41:03.469Z,978.26
2023-03-21T06:42:03.408Z,978.28
2023-03-21T06:43:03.063Z,978.17
2023-03-21T06:44:03.339Z,978.37
2023-03-21T06:45:03.374Z,978.34
2023-03-21T06:46:03.145Z,978.44
2023-03-21T06:47:03.513Z,978.34
2023-03-21T06:48:03.448Z,978.25
2023-03-21T06:49:03.169Z,978.33
2023-03-21T06:50:03.240Z,978.42
2023-03-21T06:51:02.965Z,978.33
2023-03-21T06:52:03.048Z,978.30
2023-03-21T06:53:02.928Z,978.39
2023-03-21T06:54:03.059Z,978.49
2023-03-21T06:55:03.899Z,978.30
2023-03-21T06:56:02.978Z,978.41
2023-03-21T06:57:03.042Z,978.41
2023-03-21T06:58:03.081Z,978.44
2023-03-21T06:59:03.220Z,978.41
2023-03-21T07:00:03.348Z,978.44
2023-03-21T07:01:03.398Z,978.44
2023-03-21T07:02:03.271Z,978.35
2023-03-21T07:03:03.389Z,978.41
2023-03-21T07:04:03.353Z,978.44
2023-03-21T07:05:03.474Z,978.51
2023-03-21T07:06:03.520Z,978.43
2023-03-21T07:07:03.555Z,978.43
2023-03-21T07:08:03.544Z,978.43
2023-03-21T07:09:03.631Z,978.35
2023-03-21T07:10:03.570Z,978.48
2023-03-21T07:11:03.577Z,978.51
2023-03-21T07:12:03.644Z,978.35
2023-03-21T07:13:03.432Z,978.43
2023-03-21T07:14:03.430Z,978.45
2023-03-21T07:15:03.483Z,978.45
2023-03-21T07:16:03.656Z,978.43
2023-03-21T07:17:03.647Z,978.40
2023-03-21T07:18:03.625Z,978.45
2023-03-21T07:19:03.593Z,978.29
2023-03-21T07:20:03.504Z,978.47
2023-03-21T07:21:03.592Z,978.40
2023-03-21T07:22:03.631Z,978.42
2023-03-21T07:23:03.540Z,978.44
2023-03-21T07:24:03.610Z,978.44
2023-03-21T07:25:05.877Z,978.33
2023-03-21T07:26:03.721Z,978.52
2023-03-21T07:27:03.666Z,978.30
2023-03-21T07:28:03.623Z,978.38
2023-03-21T07:29:03.652Z,978.51
2023-03-21T07:30:03.577Z,978.30
2023-03-21T07:31:03.602Z,978.45
2023-03-21T07:32:03.685Z,978.44
2023-03-21T07:33:03.768Z,978.54
2023-03-21T07:34:03.619Z,978.53
2023-03-21T07:35:03.754Z,978.48
2023-03-21T07:36:03.878Z,978.59
2023-03-21T07:37:03.919Z,978.47
2023-03-21T07:38:03.164Z,978.58
2023-03-21T07:39:03.148Z,978.58
2023-03-21T07:40:03.121Z,978.58
2023-03-21T07:41:03.527Z,978.49
2023-03-21T07:42:03.765Z,978.52
2023-03-21T07:43:03.576Z,978.63
2023-03-21T07:44:03.709Z,978.63
2023-03-21T07:45:03.608Z,978.63
2023-03-21T07:46:03.667Z,978.62
2023-03-21T07:47:03.594Z,978.51
2023-03-21T07:48:03.870Z,978.65
2023-03-21T07:49:03.715Z,978.62
2023-03-21T07:50:03.799Z,978.53
2023-03-21T07:51:03.002Z,978.64
2023-03-21T07:52:05.382Z,978.58
2023-03-21T07:53:03.518Z,978.81
2023-03-21T07:54:03.709Z,978.69
2023-03-21T07:55:03.675Z,978.63
2023-03-21T07:56:03.685Z,978.83
2023-03-21T07:57:03.838Z,978.69
2023-03-21T07:58:03.788Z,978.80
2023-03-21T07:59:03.877Z,978.82
2023-03-21T08:00:03.903Z,978.85
2023-03-21T08:01:03.779Z,978.96
2023-03-21T08:02:03.851Z,978.82
2023-03-21T08:03:04.072Z,978.70
2023-03-21T08:04:03.908Z,978.84
2023-03-21T08:05:03.879Z,978.96
2023-03-21T08:06:03.946Z,978.84
2023-03-21T08:07:03.985Z,978.93
2023-03-21T08:08:02.994Z,978.98
2023-03-21T08:09:03.076Z,979.01
2023-03-21T08:10:03.127Z,979.04
2023-03-21T08:11:03.272Z,979.01
2023-03-21T08:12:03.197Z,978.98
2023-03-21T08:13:03.257Z,979.04
2023-03-21T08:14:03.174Z,978.95
2023-03-21T08:15:03.149Z,978.92
2023-03-21T08:16:03.151Z,978.89
2023-03-21T08:17:03.184Z,979.09
2023-03-21T08:18:03.243Z,978.92
2023-03-21T08:19:03.209Z,979.09
2023-03-21T08:20:03.221Z,979.11
2023-03-21T08:21:03.246Z,978.91
2023-03-21T08:22:03.182Z,979.11
2023-03-21T08:23:03.412Z,979.00
2023-03-21T08:24:03.333Z,978.99
2023-03-21T08:25:03.512Z,978.99
2023-03-21T08:26:03.514Z,979.13
2023-03-21T08:27:03.487Z,978.99
2023-03-21T08:28:03.340Z,979.10
2023-03-21T08:29:03.432Z,979.13
2023-03-21T08:30:03.636Z,979.15
2023-03-21T08:31:03.567Z,979.15
2023-03-21T08:32:03.580Z,979.18
2023-03-21T08:33:03.548Z,979.06
2023-03-21T08:34:03.682Z,979.29
2023-03-21T08:35:03.633Z,979.14
2023-03-21T08:36:03.562Z,979.17
2023-03-21T08:37:03.628Z,979.08
2023-03-21T08:38:03.799Z,979.31
2023-03-21T08:39:03.730Z,979.27
2023-03-21T08:40:03.893Z,979.33
2023-03-21T08:41:03.676Z,979.24
2023-03-21T08:42:03.860Z,979.39
2023-03-21T08:43:03.769Z,979.36
2023-03-21T08:44:03.920Z,979.50
2023-03-21T08:45:03.871Z,979.38
2023-03-21T08:46:03.060Z,979.44
2023-03-21T08:47:02.921Z,979.52
2023-03-21T08:48:03.229Z,979.49
2023-03-21T08:49:03.041Z,979.55
2023-03-21T08:50:03.105Z,979.52
2023-03-21T08:51:03.141Z,979.52
2023-03-21T08:52:03.096Z,979.31
2023-03-21T08:53:03.143Z,979.34
2023-03-21T08:54:03.211Z,979.54
2023-03-21T08:55:03.194Z,979.34
2023-03-21T08:56:03.163Z,979.45
2023-03-21T08:57:03.254Z,979.34
2023-03-21T08:58:03.188Z,979.45
2023-03-21T08:59:03.251Z,979.48
2023-03-21T09:00:03.323Z,979.39
2023-03-21T09:01:03.251Z,979.36
2023-03-21T09:02:03.562Z,979.48
2023-03-21T09:03:03.191Z,979.36
2023-03-21T09:04:03.196Z,979.33
2023-03-21T09:05:03.374Z,979.42
2023-03-21T09:06:03.209Z,979.39
2023-03-21T09:07:03.164Z,979.33
2023-03-21T09:08:03.383Z,979.33
2023-03-21T09:09:03.316Z,979.33
2023-03-21T09:10:23.102Z,979.44
2023-03-21T09:11:03.355Z,979.38
2023-03-21T09:12:03.429Z,979.49
2023-03-21T09:13:03.325Z,979.46
2023-03-21T09:14:03.468Z,979.37
2023-03-21T09:15:03.639Z,979.28
2023-03-21T09:16:03.702Z,979.42
2023-03-21T09:17:03.958Z,979.36
2023-03-21T09:18:03.831Z,979.33
2023-03-21T09:19:03.682Z,979.33
2023-03-21T09:20:03.741Z,979.33
2023-03-21T09:21:03.768Z,979.36
2023-03-21T09:22:03.746Z,979.36
2023-03-21T09:23:03.842Z,979.50
2023-03-21T09:24:06.973Z,979.38
2023-03-21T09:25:03.749Z,979.44
2023-03-21T09:26:03.753Z,979.35
2023-03-21T09:27:03.782Z,979.49
2023-03-21T09:28:03.701Z,979.29
2023-03-21T09:29:03.799Z,979.37
2023-03-21T09:30:03.794Z,979.43
2023-03-21T09:31:03.888Z,979.51
2023-03-21T09:32:03.925Z,979.40
2023-03-21T09:33:03.937Z,979.40
2023-03-21T09:34:03.089Z,979.39
2023-03-21T09:35:03.072Z,979.48
2023-03-21T09:36:03.145Z,979.33
2023-03-21T09:37:03.302Z,979.48
2023-03-21T09:38:03.404Z,979.50
2023-03-21T09:39:03.305Z,979.47
2023-03-21T09:40:03.324Z,979.44
2023-03-21T09:41:03.533Z,979.32
2023-03-21T09:42:03.462Z,979.47
2023-03-21T09:43:03.356Z,979.38
2023-03-21T09:44:03.468Z,979.38
2023-03-21T09:45:03.547Z,979.52
2023-03-21T09:46:03.601Z,979.49
2023-03-21T09:47:03.718Z,979.40
2023-03-21T09:48:03.674Z,979.52
2023-03-21T09:49:03.498Z,979.37
2023-03-21T09:50:15.325Z,979.37
2023-03-21T09:51:03.468Z,979.46
2023-03-21T09:52:03.417Z,979.49
2023-03-21T09:53:03.483Z,979.37
2023-03-21T09:54:03.488Z,979.42
2023-03-21T09:55:03.513Z,979.48
2023-03-21T09:56:03.635Z,979.34
2023-03-21T09:57:03.588Z,979.45
2023-03-21T09:58:03.709Z,979.33
2023-03-21T09:59:03.669Z,979.33
2023-03-21T10:00:03.523Z,979.48
2023-03-21T10:01:03.771Z,979.36
2023-03-21T10:02:03.644Z,979.48
2023-03-21T10:03:03.711Z,979.27
2023-03-21T10:04:03.639Z,979.39
2023-03-21T10:05:03.607Z,979.30
2023-03-21T10:06:03.563Z,979.44
2023-03-21T10:07:03.725Z,979.36
2023-03-21T10:08:03.660Z,979.41
2023-03-21T10:09:03.724Z,979.24
2023-03-21T10:10:03.604Z,979.41
2023-03-21T10:11:03.657Z,979.29
2023-03-21T10:12:03.775Z,979.38
2023-03-21T10:13:03.682Z,979.29
2023-03-21T10:14:03.704Z,979.38
2023-03-21T10:15:03.707Z,979.26
2023-03-21T10:16:03.950Z,979.35
2023-03-21T10:17:03.753Z,979.32
2023-03-21T10:18:03.832Z,979.23
2023-03-21T10:19:03.096Z,979.29
2023-03-21T10:20:03.123Z,979.26
2023-03-21T10:21:03.049Z,979.26
2023-03-21T10:22:04.518Z,979.31
2023-03-21T10:23:03.193Z,979.20
2023-03-21T10:24:03.238Z,979.17
2023-03-21T10:25:03.200Z,979.17
2023-03-21T10:26:03.264Z,979.14
2023-03-21T10:27:03.266Z,979.20
2023-03-21T10:28:03.252Z,979.23
2023-03-21T10:29:03.433Z,979.14
2023-03-21T10:30:03.338Z,979.17
2023-03-21T10:31:03.269Z,979.20
2023-03-21T10:32:03.448Z,979.20
2023-03-21T10:33:03.575Z,979.08
2023-03-21T10:34:03.519Z,978.93
2023-03-21T10:35:03.726Z,979.19
2023-03-21T10:36:03.620Z,979.10
2023-03-21T10:37:04.045Z,979.10
2023-03-21T10:38:03.735Z,979.13
2023-03-21T10:39:03.767Z,979.04
2023-03-21T10:40:03.747Z,979.10
2023-03-21T10:41:03.842Z,979.13
2023-03-21T10:42:03.983Z,979.18
2023-03-21T10:43:03.843Z,979.07
2023-03-21T10:44:03.941Z,979.10
2023-03-21T10:45:03.887Z,979.10
2023-03-21T10:46:04.047Z,979.13
2023-03-21T10:47:04.439Z,979.13
2023-03-21T10:48:03.723Z,979.04
2023-03-21T10:49:03.281Z,979.07
2023-03-21T10:50:10.068Z,978.98
2023-03-21T10:51:03.254Z,978.92
2023-03-21T10:52:03.336Z,979.06
2023-03-21T10:53:03.421Z,979.03
2023-03-21T10:54:03.558Z,978.80
2023-03-21T10:55:03.493Z,978.89
2023-03-21T10:56:03.587Z,978.97
2023-03-21T10:57:03.625Z,978.97
2023-03-21T10:58:03.652Z,978.85
2023-03-21T10:59:03.838Z,978.88
2023-03-21T11:00:03.656Z,978.88
2023-03-21T11:01:03.959Z,979.08
2023-03-21T11:02:03.657Z,978.99
2023-03-21T11:03:03.471Z,978.87
2023-03-21T11:04:03.510Z,978.96
2023-03-21T11:05:03.577Z,978.87
2023-03-21T11:06:03.536Z,978.93
2023-03-21T11:07:03.454Z,978.93
2023-03-21T11:08:03.481Z,978.90
2023-03-21T11:09:03.347Z,978.99
2023-03-21T11:10:03.448Z,979.07
2023-03-21T11:11:03.498Z,978.90
2023-03-21T11:12:03.479Z,978.92
2023-03-21T11:13:03.462Z,978.92
2023-03-21T11:14:03.438Z,979.01
2023-03-21T11:15:03.382Z,978.98
2023-03-21T11:16:03.546Z,978.92
2023-03-21T11:17:03.599Z,978.86
2023-03-21T11:18:03.522Z,978.89
2023-03-21T11:19:03.579Z,978.83
2023-03-21T11:20:03.470Z,978.88
2023-03-21T11:21:03.471Z,978.86
2023-03-21T11:22:03.394Z,978.91
2023-03-21T11:23:03.433Z,978.80
2023-03-21T11:24:03.821Z,978.85
2023-03-21T11:25:03.684Z,978.88
2023-03-21T11:26:03.691Z,978.80
2023-03-21T11:27:03.779Z,978.85
2023-03-21T11:28:03.632Z,978.82
2023-03-21T11:29:03.608Z,978.79
2023-03-21T11:30:03.515Z,978.71
2023-03-21T11:31:03.654Z,978.77
2023-03-21T11:32:03.496Z,978.74
2023-03-21T11:33:03.505Z,978.79
2023-03-21T11:34:03.542Z,978.76
2023-03-21T11:35:03.751Z,978.68
2023-03-21T11:36:03.616Z,978.82
2023-03-21T11:37:03.453Z,978.76
2023-03-21T11:38:03.610Z,978.67
2023-03-21T11:39:03.548Z,978.85
2023-03-21T11:40:03.617Z,978.64
2023-03-21T11:41:03.643Z,978.67
2023-03-21T11:42:03.849Z,978.75
2023-03-21T11:43:03.752Z,978.64
2023-03-21T11:44:03.677Z,978.64
2023-03-21T11:45:03.816Z,978.58
2023-03-21T11:46:03.862Z,978.61
2023-03-21T11:47:03.814Z,978.66
2023-03-21T11:48:03.973Z,978.55
2023-03-21T11:49:03.854Z,978.69
2023-03-21T11:50:05.760Z,978.66
2023-03-21T11:51:03.789Z,978.57
2023-03-21T11:52:03.822Z,978.57
2023-03-21T11:53:03.841Z,978.54
2023-03-21T11:54:03.874Z,978.57
2023-03-21T11:55:03.857Z,978.57
2023-03-21T11:56:03.907Z,978.51
2023-03-21T11:57:03.839Z,978.48
2023-03-21T11:58:15.042Z,978.48
2023-03-21T11:59:03.888Z,978.48
2023-03-21T12:00:03.707Z,978.53
2023-03-21T12:01:03.711Z,978.47
2023-03-21T12:02:03.780Z,978.45
2023-03-21T12:03:03.781Z,978.50
2023-03-21T12:04:03.712Z,978.43
2023-03-21T12:05:03.601Z,978.48
2023-03-21T12:06:03.454Z,978.43
2023-03-21T12:07:03.353Z,978.40
2023-03-21T12:08:03.427Z,978.28
2023-03-21T12:09:03.413Z,978.40
2023-03-21T12:10:03.490Z,978.48
2023-03-21T12:11:03.510Z,978.40
2023-03-21T12:12:03.474Z,978.37
2023-03-21T12:13:03.405Z,978.34
2023-03-21T12:14:03.397Z,978.34
2023-03-21T12:15:03.462Z,978.34
2023-03-21T12:16:03.687Z,978.34
2023-03-21T12:17:03.493Z,978.17
2023-03-21T12:18:03.528Z,978.34
2023-03-21T12:19:03.549Z,978.32
2023-03-21T12:20:03.427Z,978.32
2023-03-21T12:21:03.465Z,978.32
2023-03-21T12:22:03.440Z,978.29
2023-03-21T12:23:03.594Z,978.37
2023-03-21T12:24:03.357Z,978.26
2023-03-21T12:25:03.484Z,978.34
2023-03-21T12:26:03.473Z,978.35
2023-03-21T12:27:03.380Z,978.32
2023-03-21T12:28:03.488Z,978.26
2023-03-21T12:29:03.515Z,978.29